Time;durP1;ratioP1;P1;durP2;ratioP2;P2;SDS_P1;SDS_P2;PMS_P1;PMS_P2;Temp;Humidity;BMP_temperature;BMP_pressure;BME280_temperature;BME280_humidity;BME280_pressure;Samples;Min_cycle;Max_cycle;Signal;HPM_P1;HPM_P2
2022/08/22 00:01:04;;;;;;;3.38;1.00;;;26.10;48.90;25.20;101275.00;;;;5065473;28;20085;-70
2022/08/22 00:04:05;;;;;;;3.63;1.35;;;26.10;48.90;25.20;101263.00;;;;5078632;28;20064;-70
2022/08/22 00:07:02;;;;;;;1.63;1.00;;;26.10;48.90;25.20;101267.00;;;;5070189;28;20115;-71
2022/08/22 00:10:03;;;;;;;3.47;0.98;;;26.10;48.90;25.20;101263.00;;;;5076034;28;20082;-70
2022/08/22 00:13:32;;;;;;;3.17;0.90;;;26.10;48.90;25.10;101264.00;;;;5073487;28;20043;-70
2022/08/22 00:16:51;;;;;;;3.78;1.30;;;26.10;49.00;25.10;101266.00;;;;5070513;28;20040;-70
2022/08/22 00:20:03;;;;;;;1.67;1.25;;;26.00;49.00;25.10;101270.00;;;;5076555;28;20063;-70
2022/08/22 00:22:54;;;;;;;4.53;1.30;;;26.10;49.00;25.10;101264.00;;;;5077245;28;20036;-70
2022/08/22 00:26:10;;;;;;;2.55;1.20;;;26.10;49.00;25.10;101263.00;;;;5072303;28;20032;-71
2022/08/22 00:29:05;;;;;;;3.03;1.25;;;26.00;49.00;25.10;101267.00;;;;5078132;28;20084;-70
2022/08/22 00:32:25;;;;;;;4.13;1.33;;;26.10;49.20;25.10;101268.00;;;;5070474;28;20045;-70
2022/08/22 00:35:33;;;;;;;3.65;1.30;;;26.00;49.10;25.10;101254.00;;;;5063313;28;20047;-71
2022/08/22 00:38:29;;;;;;;1.70;0.93;;;26.00;49.10;25.10;101259.00;;;;5074020;28;20043;-71
2022/08/22 00:41:32;;;;;;;2.08;0.95;;;26.00;49.00;25.10;101249.00;;;;5062806;28;20062;-70
2022/08/22 00:44:36;;;;;;;4.10;1.10;;;26.00;49.10;25.10;101243.00;;;;5054695;28;20042;-71
2022/08/22 00:47:44;;;;;;;1.90;0.82;;;26.00;49.10;25.10;101246.00;;;;5078316;28;20036;-70
2022/08/22 00:51:09;;;;;;;3.03;1.17;;;26.00;49.10;25.10;101248.00;;;;5068101;28;20106;-70
2022/08/22 00:54:33;;;;;;;1.65;0.95;;;26.00;49.20;25.10;101252.00;;;;5078795;28;20051;-70
2022/08/22 00:57:29;;;;;;;5.35;1.10;;;26.00;49.20;25.10;101252.00;;;;5082830;28;20047;-70
2022/08/22 01:00:39;;;;;;;1.80;0.90;;;25.90;49.30;25.10;101251.00;;;;5066129;28;20048;-71
2022/08/22 01:04:27;;;;;;;2.53;1.15;;;25.90;49.20;25.10;101259.00;;;;5070379;28;20041;-70
2022/08/22 01:07:25;;;;;;;2.55;1.08;;;25.90;49.20;25.10;101240.00;;;;5074734;28;20040;-71
2022/08/22 01:10:42;;;;;;;2.78;1.17;;;25.90;49.30;25.10;101247.00;;;;5069200;28;20070;-70
2022/08/22 01:14:08;;;;;;;2.22;1.10;;;25.90;49.30;25.00;101252.00;;;;5070413;28;20663;-70
2022/08/22 01:16:59;;;;;;;1.75;1.02;;;25.90;49.20;25.00;101246.00;;;;5086476;28;21086;-70
2022/08/22 01:20:09;;;;;;;2.95;1.23;;;26.00;49.30;25.00;101248.00;;;;5086848;28;20036;-70
2022/08/22 01:23:29;;;;;;;2.35;1.27;;;25.80;49.10;25.00;101248.00;;;;5058978;28;20704;-70
2022/08/22 01:27:04;;;;;;;2.00;0.98;;;25.90;49.20;25.00;101241.00;;;;5078792;28;20492;-71
2022/08/22 01:30:27;;;;;;;3.30;1.23;;;25.80;49.20;25.00;101248.00;;;;5087121;28;20407;-70
2022/08/22 01:34:11;;;;;;;1.33;0.80;;;25.80;49.30;25.00;101255.00;;;;5042745;28;20114;-70
2022/08/22 01:37:39;;;;;;;2.72;1.00;;;25.80;49.30;25.00;101248.00;;;;5004360;28;20544;-70
2022/08/22 01:41:16;;;;;;;1.92;1.17;;;25.80;49.30;24.90;101250.00;;;;5057451;28;20066;-70
2022/08/22 01:44:14;;;;;;;8.27;1.48;;;25.80;49.40;24.90;101253.00;;;;5058522;28;20487;-70
2022/08/22 01:47:39;;;;;;;3.25;0.85;;;25.80;49.30;24.90;101256.00;;;;5082056;28;20065;-70
2022/08/22 01:50:41;;;;;;;2.15;1.13;;;25.70;49.40;24.90;101252.00;;;;5059144;28;20044;-70
2022/08/22 01:53:55;;;;;;;2.38;1.00;;;25.80;49.40;24.90;101259.00;;;;5066596;28;20043;-70
2022/08/22 01:56:43;;;;;;;2.22;1.40;;;25.80;49.50;24.90;101253.00;;;;5070858;28;20032;-70
2022/08/22 01:59:38;;;;;;;2.53;1.25;;;25.80;49.50;24.90;101253.00;;;;5063466;28;20446;-70
2022/08/22 02:02:36;;;;;;;2.38;1.02;;;25.70;49.40;24.90;101251.00;;;;5070743;28;20109;-70
2022/08/22 02:05:38;;;;;;;3.80;1.30;;;25.70;50.10;24.90;101255.00;;;;5079621;28;20126;-70
2022/08/22 02:08:52;;;;;;;2.30;0.95;;;25.70;49.50;24.90;101247.00;;;;5075051;28;20085;-72
2022/08/22 02:12:14;;;;;;;1.65;0.90;;;25.70;49.40;24.90;101246.00;;;;5057086;28;20044;-71
2022/08/22 02:15:42;;;;;;;2.78;1.00;;;25.70;49.40;24.90;101246.00;;;;5075081;28;20471;-70
2022/08/22 02:18:39;;;;;;;2.40;1.05;;;25.70;49.40;24.90;101250.00;;;;5086124;28;20055;-70
2022/08/22 02:22:02;;;;;;;2.63;0.93;;;25.70;49.40;24.90;101249.00;;;;5046263;28;20055;-70
2022/08/22 02:25:15;;;;;;;3.50;1.20;;;25.70;49.40;24.90;101240.00;;;;5069266;28;20181;-71
2022/08/22 02:28:11;;;;;;;1.95;1.20;;;25.70;50.10;24.90;101251.00;;;;5067945;28;20047;-71
2022/08/22 02:31:43;;;;;;;3.70;1.05;;;25.70;49.40;24.90;101251.00;;;;5068768;28;20607;-71
2022/08/22 02:34:54;;;;;;;2.63;1.10;;;25.60;49.30;24.90;101242.00;;;;5056698;28;20373;-70
2022/08/22 02:37:40;;;;;;;3.08;1.15;;;25.60;49.30;24.90;101240.00;;;;5045145;28;20600;-70
2022/08/22 02:41:07;;;;;;;1.35;0.93;;;25.70;49.30;24.90;101235.00;;;;5091662;28;20503;-71
2022/08/22 02:44:16;;;;;;;1.90;1.17;;;25.60;49.30;24.80;101237.00;;;;5068188;28;20084;-71
2022/08/22 02:47:11;;;;;;;2.28;1.00;;;25.70;49.40;24.90;101241.00;;;;5056582;28;20070;-70
2022/08/22 02:51:00;;;;;;;2.17;1.10;;;25.70;49.30;24.80;101229.00;;;;5069600;28;20032;-71
2022/08/22 02:53:47;;;;;;;0.88;0.82;;;25.60;49.30;24.80;101232.00;;;;5085320;28;20091;-70
2022/08/22 02:57:02;;;;;;;2.17;0.90;;;25.70;49.40;24.80;101225.00;;;;5086526;28;20043;-70
2022/08/22 03:00:15;;;;;;;2.05;0.80;;;25.60;49.40;24.80;101224.00;;;;5072113;28;20044;-71
2022/08/22 03:03:20;;;;;;;1.58;0.98;;;25.60;49.40;24.80;101225.00;;;;5075063;28;20078;-70
2022/08/22 03:06:39;;;;;;;3.05;1.40;;;25.60;49.40;24.80;101219.00;;;;5082912;28;20036;-70
2022/08/22 03:09:29;;;;;;;0.95;0.80;;;25.60;49.40;24.80;101219.00;;;;5073442;28;20036;-70
2022/08/22 03:12:46;;;;;;;2.00;0.88;;;25.60;49.40;24.80;101220.00;;;;5072922;28;20088;-70
2022/08/22 03:15:55;;;;;;;1.77;0.98;;;25.60;49.40;24.80;101215.00;;;;5066730;28;20066;-70
2022/08/22 03:19:13;;;;;;;3.58;1.00;;;25.60;49.40;24.80;101211.00;;;;5070454;28;20076;-70
2022/08/22 03:22:10;;;;;;;3.72;1.00;;;25.50;49.30;24.80;101203.00;;;;5075157;28;20155;-70
2022/08/22 03:25:15;;;;;;;2.08;0.93;;;25.60;49.40;24.80;101202.00;;;;5059720;28;20074;-70
2022/08/22 03:28:31;;;;;;;1.55;0.82;;;25.60;49.40;24.80;101208.00;;;;5073340;28;20040;-70
2022/08/22 03:31:21;;;;;;;2.03;1.08;;;25.60;49.50;24.80;101200.00;;;;5060769;28;20040;-70
2022/08/22 03:34:23;;;;;;;2.70;1.00;;;25.60;49.50;24.80;101197.00;;;;5067829;28;20093;-70
2022/08/22 03:37:16;;;;;;;1.42;0.95;;;25.60;49.50;24.80;101198.00;;;;5082581;28;20050;-71
2022/08/22 03:40:33;;;;;;;1.75;0.80;;;25.60;49.50;24.70;101205.00;;;;5052924;28;20044;-70
2022/08/22 03:44:13;;;;;;;1.50;0.80;;;25.50;49.60;24.70;101209.00;;;;5077298;28;20036;-70
2022/08/22 03:47:49;;;;;;;1.98;0.68;;;25.50;49.50;24.70;101202.00;;;;5082511;28;20257;-70
2022/08/22 03:51:17;;;;;;;0.80;0.80;;;25.50;49.50;24.70;101202.00;;;;5061768;28;20363;-70
2022/08/22 03:54:25;;;;;;;3.90;1.00;;;25.50;49.50;24.70;101203.00;;;;5075915;28;20136;-70
2022/08/22 03:57:49;;;;;;;2.95;1.00;;;25.50;49.50;24.70;101202.00;;;;5069065;28;20040;-70
2022/08/22 04:01:05;;;;;;;1.85;1.20;;;25.50;49.50;24.60;101205.00;;;;5080980;28;20071;-70
2022/08/22 04:04:09;;;;;;;2.47;1.00;;;25.50;49.60;24.70;101200.00;;;;5075138;28;20469;-70
2022/08/22 04:07:18;;;;;;;1.30;0.70;;;25.40;49.60;24.70;101205.00;;;;5069117;28;20042;-70
2022/08/22 04:10:44;;;;;;;1.75;0.80;;;25.40;49.60;24.60;101202.00;;;;5058288;28;20077;-70
2022/08/22 04:13:58;;;;;;;0.57;0.57;;;25.50;49.60;24.60;101202.00;;;;5084391;28;20122;-70
2022/08/22 04:17:16;;;;;;;1.27;0.77;;;25.40;49.60;24.60;101210.00;;;;5068133;28;20044;-70
2022/08/22 04:20:50;;;;;;;1.80;1.02;;;25.40;49.50;24.60;101207.00;;;;5060412;28;20043;-70
2022/08/22 04:24:18;;;;;;;3.58;1.40;;;25.40;49.60;24.60;101206.00;;;;5056728;28;20036;-70
2022/08/22 04:27:31;;;;;;;1.00;0.88;;;25.40;49.50;24.60;101206.00;;;;5066846;28;20611;-70
2022/08/22 04:30:46;;;;;;;2.28;0.90;;;25.40;49.50;24.60;101211.00;;;;5073556;28;20465;-70
2022/08/22 04:33:48;;;;;;;1.63;0.93;;;25.40;49.50;24.60;101205.00;;;;5075307;28;20382;-70
2022/08/22 04:37:02;;;;;;;1.50;1.15;;;25.40;49.60;24.60;101208.00;;;;5073896;28;20040;-71
2022/08/22 04:39:57;;;;;;;1.73;0.85;;;25.40;49.60;24.60;101200.00;;;;5076044;28;20040;-70
2022/08/22 04:42:53;;;;;;;0.93;0.80;;;25.30;49.50;24.60;101205.00;;;;5074891;28;20048;-71
2022/08/22 04:46:08;;;;;;;1.95;0.75;;;25.40;49.60;24.60;101211.00;;;;5054585;28;20138;-70
2022/08/22 04:49:05;;;;;;;1.63;0.88;;;25.30;49.50;24.60;101210.00;;;;5062440;28;20036;-70
2022/08/22 04:52:35;;;;;;;3.15;0.98;;;25.40;49.50;24.60;101204.00;;;;5076619;28;20036;-70
2022/08/22 04:56:02;;;;;;;1.60;0.80;;;25.30;49.50;24.50;101208.00;;;;5064123;28;20409;-70
2022/08/22 04:58:55;;;;;;;1.35;0.65;;;25.30;49.40;24.50;101209.00;;;;5081447;28;20033;-70
2022/08/22 05:01:53;;;;;;;2.08;0.80;;;25.30;49.40;24.50;101215.00;;;;5071632;28;20407;-70
2022/08/22 05:04:49;;;;;;;2.30;0.93;;;25.30;49.50;24.50;101217.00;;;;5082977;28;20036;-70
2022/08/22 05:07:39;;;;;;;0.70;0.60;;;25.30;49.40;24.50;101211.00;;;;5072569;28;20048;-70
2022/08/22 05:10:36;;;;;;;1.50;0.85;;;25.30;49.40;24.50;101215.00;;;;5074062;28;20074;-70
2022/08/22 05:13:42;;;;;;;2.70;1.00;;;25.30;49.40;24.50;101216.00;;;;5065695;28;20032;-70
2022/08/22 05:16:36;;;;;;;1.42;0.80;;;25.30;49.40;24.50;101217.00;;;;5069555;28;20036;-70
2022/08/22 05:19:30;;;;;;;2.17;0.88;;;25.30;49.30;24.50;101220.00;;;;5064970;28;20036;-70
2022/08/22 05:22:22;;;;;;;3.15;0.85;;;25.30;49.30;24.50;101227.00;;;;5059203;28;20405;-70
2022/08/22 05:25:14;;;;;;;1.80;0.93;;;25.40;49.30;24.50;101226.00;;;;5059430;28;20043;-70
2022/08/22 05:28:10;;;;;;;1.85;0.80;;;25.30;49.20;24.50;101219.00;;;;5073667;28;20115;-70
2022/08/22 05:30:56;;;;;;;1.13;1.00;;;25.30;49.20;24.50;101215.00;;;;5068828;28;20040;-70
2022/08/22 05:33:48;;;;;;;1.10;0.77;;;25.30;49.20;24.50;101225.00;;;;5068535;28;20599;-70
2022/08/22 05:36:39;;;;;;;1.60;0.65;;;25.30;49.30;24.50;101215.00;;;;5052711;28;20514;-70
2022/08/22 05:39:25;;;;;;;1.60;0.77;;;25.30;49.20;24.50;101218.00;;;;5058257;28;20511;-70
2022/08/22 05:42:17;;;;;;;3.00;1.02;;;25.20;49.20;24.50;101225.00;;;;5071971;28;20202;-70
2022/08/22 05:45:06;;;;;;;2.47;0.85;;;25.30;49.30;24.50;101228.00;;;;5064787;28;20047;-71
2022/08/22 05:48:02;;;;;;;3.05;0.98;;;25.30;49.30;24.50;101229.00;;;;5063507;28;20508;-70
2022/08/22 05:50:55;;;;;;;2.13;1.00;;;25.30;49.20;24.50;101232.00;;;;5063524;28;20044;-70
2022/08/22 05:53:45;;;;;;;1.65;0.90;;;25.30;49.20;24.50;101232.00;;;;5077660;28;20040;-70
2022/08/22 05:56:44;;;;;;;2.13;1.15;;;25.30;49.10;24.50;101235.00;;;;5063311;28;20032;-71
2022/08/22 05:59:34;;;;;;;2.85;0.70;;;25.30;49.10;24.50;101241.00;;;;5067682;28;20617;-70
2022/08/22 06:02:25;;;;;;;1.35;1.00;;;25.30;49.10;24.50;101235.00;;;;5064879;28;20126;-71
2022/08/22 06:05:11;;;;;;;3.03;1.10;;;25.30;49.10;24.60;101243.00;;;;5070015;28;20047;-70
2022/08/22 06:08:06;;;;;;;3.25;1.10;;;25.30;49.10;24.60;101239.00;;;;5074464;28;20048;-70
2022/08/22 06:10:54;;;;;;;1.65;0.95;;;25.30;49.10;24.60;101238.00;;;;5071448;28;20067;-70
2022/08/22 06:13:44;;;;;;;1.90;0.90;;;25.30;49.00;24.60;101249.00;;;;5067807;28;20367;-70
2022/08/22 06:17:18;;;;;;;1.45;0.95;;;25.40;49.10;24.60;101249.00;;;;5054498;28;20055;-71
2022/08/22 06:20:07;;;;;;;2.33;0.88;;;25.40;49.10;24.60;101249.00;;;;5005055;28;1048833;-71
2022/08/22 06:22:56;;;;;;;2.40;0.98;;;25.40;49.10;24.60;101246.00;;;;5066303;28;20331;-72
2022/08/22 06:25:45;;;;;;;1.90;1.08;;;25.50;49.20;24.60;101253.00;;;;5071454;28;20043;-72
2022/08/22 06:28:40;;;;;;;0.90;0.68;;;25.40;49.10;24.60;101250.00;;;;5052185;28;20075;-71
2022/08/22 06:31:34;;;;;;;2.35;0.90;;;25.50;49.20;24.60;101253.00;;;;5060675;28;20485;-72
2022/08/22 06:34:25;;;;;;;2.42;1.25;;;25.40;49.20;24.60;101257.00;;;;5064668;28;20055;-72
2022/08/22 06:37:38;;;;;;;2.47;1.10;;;25.50;49.20;24.60;101247.00;;;;5067663;28;20563;-72
2022/08/22 06:40:24;;;;;;;2.40;0.90;;;25.50;49.20;24.60;101248.00;;;;5060948;28;20048;-72
2022/08/22 06:43:10;;;;;;;2.03;0.85;;;25.50;49.20;24.60;101249.00;;;;5058149;28;20119;-71
2022/08/22 06:45:56;;;;;;;2.72;1.38;;;25.50;49.20;24.60;101246.00;;;;5069411;28;20043;-72
2022/08/22 06:48:42;;;;;;;3.50;1.00;;;25.50;49.20;24.60;101255.00;;;;5064252;28;20043;-72
2022/08/22 06:51:29;;;;;;;2.30;0.70;;;25.50;49.90;24.60;101257.00;;;;5077713;28;20032;-71
2022/08/22 06:54:20;;;;;;;1.92;0.98;;;25.50;49.20;24.60;101264.00;;;;5078932;28;20040;-72
2022/08/22 06:57:31;;;;;;;2.58;1.08;;;25.50;49.30;24.60;101260.00;;;;5067730;28;20128;-71
2022/08/22 07:00:17;;;;;;;1.90;1.10;;;25.50;49.30;24.60;101256.00;;;;5064696;28;20066;-72
2022/08/22 07:03:21;;;;;;;2.15;0.80;;;25.60;49.40;24.70;101258.00;;;;5078632;28;20059;-72
2022/08/22 07:06:12;;;;;;;1.60;1.00;;;25.60;49.50;24.70;101248.00;;;;5066774;28;20505;-73
2022/08/22 07:08:58;;;;;;;1.70;0.85;;;25.60;49.30;24.60;101254.00;;;;5057034;28;20036;-72
2022/08/22 07:11:44;;;;;;;2.67;1.20;;;25.60;49.30;24.70;101256.00;;;;5084739;28;20040;-73
2022/08/22 07:14:42;;;;;;;1.48;0.90;;;25.60;49.30;24.70;101262.00;;;;5071821;28;20043;-72
2022/08/22 07:17:31;;;;;;;1.55;1.17;;;25.60;49.30;24.70;101266.00;;;;5061032;28;20040;-72
2022/08/22 07:20:30;;;;;;;2.63;1.20;;;25.60;49.30;24.70;101270.00;;;;5086158;28;20375;-72
2022/08/22 07:23:35;;;;;;;2.78;1.27;;;25.50;49.20;24.70;101267.00;;;;5078535;28;20062;-72
2022/08/22 07:26:46;;;;;;;3.85;1.27;;;25.60;49.40;24.70;101268.00;;;;5071227;28;20043;-73
2022/08/22 07:29:43;;;;;;;2.03;0.88;;;25.60;49.30;24.70;101274.00;;;;5064231;28;20048;-73
2022/08/22 07:32:58;;;;;;;3.45;1.00;;;25.60;49.30;24.70;101271.00;;;;5093148;28;20040;-74
2022/08/22 07:35:48;;;;;;;2.53;1.38;;;25.60;49.40;24.70;101270.00;;;;5072254;28;20068;-73
2022/08/22 07:38:42;;;;;;;4.75;1.23;;;25.60;49.30;24.70;101270.00;;;;5071147;28;20041;-73
2022/08/22 07:42:13;;;;;;;1.52;0.77;;;25.70;49.30;24.70;101271.00;;;;5055381;28;20051;-73
2022/08/22 07:45:06;;;;;;;3.00;1.40;;;25.60;49.40;24.70;101277.00;;;;5072701;28;20040;-72
2022/08/22 07:48:16;;;;;;;2.38;1.13;;;25.70;49.40;24.70;101279.00;;;;5069883;28;20502;-73
2022/08/22 07:51:10;;;;;;;5.22;1.42;;;25.60;49.50;24.70;101271.00;;;;5071578;28;20040;-75
2022/08/22 07:53:58;;;;;;;2.95;1.00;;;25.70;49.50;24.70;101271.00;;;;5069865;28;20127;-72
2022/08/22 07:57:02;;;;;;;3.17;1.33;;;25.60;49.40;24.70;101270.00;;;;5082400;28;20036;-72
2022/08/22 07:59:52;;;;;;;4.30;1.20;;;25.70;49.50;24.70;101278.00;;;;5062627;28;20036;-72
2022/08/22 08:02:57;;;;;;;3.17;1.27;;;25.70;49.50;24.70;101270.00;;;;5057275;28;20513;-72
2022/08/22 08:05:43;;;;;;;2.88;1.00;;;25.60;49.50;24.70;101271.00;;;;5059508;28;20043;-72
2022/08/22 08:08:40;;;;;;;2.05;1.15;;;25.60;49.50;24.70;101270.00;;;;5058273;28;20039;-72
2022/08/22 08:11:30;;;;;;;1.20;1.05;;;25.70;49.60;24.70;101262.00;;;;5076118;28;20059;-72
2022/08/22 08:14:16;;;;;;;2.70;1.10;;;25.70;49.50;24.70;101270.00;;;;5066309;28;20048;-72
2022/08/22 08:17:28;;;;;;;2.58;0.98;;;25.70;49.60;24.70;101276.00;;;;5065673;28;20428;-72
2022/08/22 08:20:16;;;;;;;3.72;1.10;;;25.70;49.50;24.70;101264.00;;;;5074617;28;20104;-72
2022/08/22 08:23:05;;;;;;;5.90;1.30;;;25.70;49.50;24.70;101263.00;;;;5068322;28;20047;-72
2022/08/22 08:26:16;;;;;;;3.08;1.58;;;25.70;49.50;24.70;101262.00;;;;5067506;28;20486;-72
2022/08/22 08:29:02;;;;;;;3.78;1.48;;;25.70;49.60;24.70;101255.00;;;;5054342;28;20477;-72
2022/08/22 08:31:48;;;;;;;2.05;1.20;;;25.70;49.50;24.70;101265.00;;;;5065689;28;20036;-72
2022/08/22 08:34:34;;;;;;;2.03;1.30;;;25.70;49.50;24.70;101267.00;;;;5067945;28;20043;-71
2022/08/22 08:37:32;;;;;;;2.17;1.00;;;25.80;49.70;24.70;101260.00;;;;5070457;28;20039;-71
2022/08/22 08:40:30;;;;;;;3.13;1.00;;;25.80;49.50;24.70;101256.00;;;;5068772;28;20112;-75
2022/08/22 08:43:37;;;;;;;;;;;25.70;49.60;24.70;101258.00;;;;5082312;28;20040;-75
2022/08/22 08:47:12;;;;;;;4.18;1.08;;;25.80;49.50;24.70;101264.00;;;;5073568;28;20258;-71
2022/08/22 08:50:25;;;;;;;2.20;1.15;;;25.80;49.50;24.70;101263.00;;;;5082251;28;20126;-71
2022/08/22 08:53:52;;;;;;;3.03;1.02;;;25.80;49.60;24.70;101258.00;;;;5070960;28;20086;-71
2022/08/22 08:56:54;;;;;;;1.88;0.93;;;25.70;49.50;24.70;101254.00;;;;5071250;28;20045;-71
2022/08/22 09:00:15;;;;;;;3.28;1.05;;;25.70;49.50;24.70;101252.00;;;;5060454;28;20037;-72
2022/08/22 09:03:21;;;;;;;2.75;1.00;;;25.70;49.60;24.70;101240.00;;;;5070923;28;20045;-71
2022/08/22 09:06:25;;;;;;;5.78;1.20;;;25.70;49.50;24.70;101235.00;;;;5059224;28;20501;-71
2022/08/22 09:09:45;;;;;;;2.92;1.10;;;25.70;49.60;24.70;101231.00;;;;5075263;28;20186;-71
2022/08/22 09:13:02;;;;;;;2.83;1.25;;;25.70;50.30;24.70;101228.00;;;;5078549;28;20036;-71
2022/08/22 09:16:41;;;;;;;5.07;1.35;;;25.70;50.30;24.70;101233.00;;;;5068218;28;20037;-71
2022/08/22 09:20:08;;;;;;;4.57;1.17;;;25.70;49.60;24.70;101237.00;;;;5026803;28;20115;-70
2022/08/22 09:23:37;;;;;;;3.35;1.40;;;25.70;49.70;24.70;101232.00;;;;5067383;28;20071;-71
2022/08/22 09:26:48;;;;;;;1.70;1.00;;;25.70;49.60;24.70;101225.00;;;;5071015;28;20440;-71
2022/08/22 09:29:43;;;;;;;2.95;1.17;;;25.70;49.80;24.70;101228.00;;;;5052252;28;20922;-71
2022/08/22 09:32:43;;;;;;;2.20;1.05;;;25.70;49.70;24.70;101220.00;;;;5068470;28;20036;-70
2022/08/22 09:36:15;;;;;;;3.58;1.30;;;25.80;49.90;24.70;101224.00;;;;5068055;28;20040;-71
2022/08/22 09:39:16;;;;;;;3.78;1.75;;;25.80;49.90;24.70;101226.00;;;;5073518;28;20487;-71
2022/08/22 09:42:42;;;;;;;9.18;1.77;;;25.80;49.80;24.70;101225.00;;;;5056267;28;20462;-71
2022/08/22 09:45:44;;;;;;;6.13;1.92;;;25.80;49.80;24.70;101216.00;;;;5068041;28;20036;-70
2022/08/22 09:49:05;;;;;;;4.03;1.40;;;25.80;49.90;24.70;101218.00;;;;5066079;28;20509;-71
2022/08/22 09:52:25;;;;;;;3.97;1.60;;;25.80;49.90;24.70;101213.00;;;;5075063;28;20037;-71
2022/08/22 09:55:42;;;;;;;3.83;1.60;;;25.80;49.90;24.70;101215.00;;;;5060085;28;20770;-70
2022/08/22 09:58:43;;;;;;;2.97;1.30;;;25.80;49.90;24.70;101212.00;;;;5074060;28;20032;-71
2022/08/22 10:02:17;;;;;;;5.07;1.40;;;25.80;50.00;24.80;101214.00;;;;5083695;28;20047;-71
2022/08/22 10:05:11;;;;;;;3.72;1.33;;;25.80;49.90;24.80;101212.00;;;;5081450;28;20089;-71
2022/08/22 10:08:11;;;;;;;3.75;1.30;;;25.80;49.90;24.80;101221.00;;;;5079241;28;20185;-71
2022/08/22 10:11:29;;;;;;;4.38;1.60;;;25.80;49.90;24.80;101215.00;;;;5074565;28;20032;-70
2022/08/22 10:14:24;;;;;;;3.40;1.50;;;25.80;50.00;24.80;101208.00;;;;5064437;28;20509;-71
2022/08/22 10:17:18;;;;;;;4.88;1.50;;;25.80;49.90;24.80;101202.00;;;;5067145;28;20054;-71
2022/08/22 10:20:28;;;;;;;3.40;1.50;;;25.80;49.90;24.80;101203.00;;;;5068889;28;20082;-70
2022/08/22 10:23:50;;;;;;;3.28;1.40;;;25.80;49.90;24.80;101207.00;;;;5072769;28;20047;-71
2022/08/22 10:26:53;;;;;;;6.03;1.58;;;25.80;49.90;24.80;101205.00;;;;5055215;28;20059;-70
2022/08/22 10:30:17;;;;;;;3.28;1.42;;;25.80;49.90;24.80;101199.00;;;;5068538;28;20040;-71
2022/08/22 10:33:30;;;;;;;5.70;1.75;;;25.80;49.90;24.80;101199.00;;;;5017946;28;20041;-71
2022/08/22 10:36:47;;;;;;;3.65;1.50;;;25.80;49.90;24.80;101191.00;;;;5054669;28;20088;-71
2022/08/22 10:39:47;;;;;;;6.00;1.50;;;25.80;49.90;24.80;101198.00;;;;5058215;28;20311;-70
2022/08/22 10:42:52;;;;;;;5.22;1.63;;;25.80;49.90;24.80;101184.00;;;;5073542;28;20119;-71
2022/08/22 10:45:44;;;;;;;6.45;2.63;;;25.90;50.00;24.80;101189.00;;;;5072240;28;20404;-71
2022/08/22 10:48:44;;;;;;;6.20;2.28;;;25.90;50.00;24.80;101187.00;;;;5064402;28;20043;-71
2022/08/22 10:52:03;;;;;;;4.45;1.98;;;25.80;50.00;24.80;101183.00;;;;5072866;28;20391;-71
2022/08/22 10:55:11;;;;;;;4.05;1.70;;;25.80;50.10;24.80;101184.00;;;;5072505;28;20444;-71
2022/08/22 10:58:10;;;;;;;5.33;1.80;;;25.90;50.10;24.80;101167.00;;;;5075932;28;20094;-71
2022/08/22 11:01:01;;;;;;;3.67;1.52;;;25.90;50.10;24.80;101176.00;;;;5066550;28;20568;-71
2022/08/22 11:04:10;;;;;;;3.35;1.80;;;25.90;50.10;24.80;101169.00;;;;5076828;28;20046;-71
2022/08/22 11:07:13;;;;;;;4.10;1.83;;;25.90;50.10;24.80;101174.00;;;;5073865;28;20043;-71
2022/08/22 11:10:08;;;;;;;4.50;1.73;;;25.90;50.10;24.80;101170.00;;;;5075376;28;20032;-71
2022/08/22 11:13:14;;;;;;;6.55;1.95;;;25.90;50.10;24.90;101165.00;;;;5067215;28;21061;-70
2022/08/22 11:16:45;;;;;;;4.22;2.10;;;25.90;50.10;24.90;101168.00;;;;5060423;28;20040;-70
2022/08/22 11:20:15;;;;;;;6.57;1.98;;;25.90;50.10;24.90;101158.00;;;;5075784;28;20097;-70
2022/08/22 11:23:44;;;;;;;4.63;2.08;;;25.90;50.10;24.90;101163.00;;;;5064302;28;20040;-71
2022/08/22 11:26:50;;;;;;;3.28;1.95;;;25.90;50.00;24.80;101160.00;;;;5075729;28;20044;-70
2022/08/22 11:29:39;;;;;;;4.68;1.90;;;26.00;50.20;24.90;101162.00;;;;5075112;28;20103;-70
2022/08/22 11:32:51;;;;;;;4.40;1.50;;;25.90;50.00;24.90;101157.00;;;;5072301;28;20040;-70
2022/08/22 11:35:43;;;;;;;2.85;1.55;;;25.90;50.00;24.90;101161.00;;;;5071053;28;20043;-70
2022/08/22 11:39:04;;;;;;;3.13;1.60;;;25.90;50.00;24.90;101150.00;;;;5071432;28;20058;-70
2022/08/22 11:42:20;;;;;;;2.67;1.50;;;26.00;50.00;24.90;101156.00;;;;5070120;28;20054;-70
2022/08/22 11:45:06;;;;;;;4.88;1.80;;;26.00;50.00;24.90;101152.00;;;;5071387;28;20130;-71
2022/08/22 11:48:16;;;;;;;5.90;1.55;;;26.00;49.90;24.90;101147.00;;;;5059181;28;20036;-70
2022/08/22 11:51:23;;;;;;;3.05;1.42;;;25.90;49.90;24.90;101143.00;;;;5074503;28;20036;-70
2022/08/22 11:54:18;;;;;;;2.65;1.55;;;25.90;49.80;24.90;101143.00;;;;5056008;28;20035;-70
2022/08/22 11:57:12;;;;;;;3.22;1.25;;;26.00;49.80;24.90;101147.00;;;;5074019;28;20040;-70
2022/08/22 12:00:19;;;;;;;5.40;1.77;;;26.00;49.70;24.90;101145.00;;;;5074035;28;20651;-71
2022/08/22 12:03:32;;;;;;;5.57;1.40;;;26.00;49.70;24.90;101130.00;;;;5083830;28;20037;-70
2022/08/22 12:06:38;;;;;;;4.13;1.42;;;26.00;49.70;24.90;101135.00;;;;5070055;28;20036;-70
2022/08/22 12:10:15;;;;;;;3.50;1.27;;;26.00;49.60;24.90;101129.00;;;;5063797;28;20035;-71
2022/08/22 12:13:08;;;;;;;4.00;1.52;;;26.00;49.50;24.90;101126.00;;;;5088056;28;20520;-70
2022/08/22 12:16:22;;;;;;;2.58;1.50;;;25.90;49.40;24.90;101120.00;;;;5069563;28;20101;-70
2022/08/22 12:19:28;;;;;;;3.67;1.40;;;26.10;49.60;24.90;101116.00;;;;5068959;28;20058;-70
2022/08/22 12:22:57;;;;;;;3.17;1.27;;;26.00;49.40;24.90;101119.00;;;;5062723;28;20047;-71
2022/08/22 12:26:23;;;;;;;3.47;1.75;;;26.00;49.30;24.90;101122.00;;;;5084832;28;20094;-71
2022/08/22 12:29:27;;;;;;;5.72;1.83;;;26.00;49.30;24.90;101114.00;;;;5071688;28;20047;-71
2022/08/22 12:32:32;;;;;;;4.68;1.70;;;26.10;49.30;24.90;101109.00;;;;5080767;28;20040;-70
2022/08/22 12:35:36;;;;;;;4.85;1.88;;;26.10;49.40;24.90;101111.00;;;;5069216;28;20043;-70
2022/08/22 12:38:50;;;;;;;6.10;1.73;;;26.00;49.30;24.90;101110.00;;;;5081403;28;20047;-71
2022/08/22 12:42:03;;;;;;;4.30;1.63;;;26.10;49.20;24.90;101102.00;;;;5068715;28;20094;-71
2022/08/22 12:45:36;;;;;;;3.22;1.55;;;26.00;49.20;24.90;101106.00;;;;5075089;28;20044;-71
2022/08/22 12:49:01;;;;;;;3.35;1.50;;;26.00;49.10;24.90;101104.00;;;;5073054;28;20438;-70
2022/08/22 12:52:38;;;;;;;3.95;1.48;;;26.00;49.10;24.90;101088.00;;;;5068159;28;20040;-70
2022/08/22 12:55:48;;;;;;;3.33;1.80;;;26.00;49.20;24.90;101087.00;;;;5059666;28;20032;-71
2022/08/22 12:59:03;;;;;;;4.18;1.90;;;26.00;49.00;24.90;101087.00;;;;5082840;28;20118;-70
2022/08/22 13:01:52;;;;;;;3.05;1.50;;;26.00;49.00;24.90;101084.00;;;;5082209;28;20030;-70
2022/08/22 13:04:49;;;;;;;1.92;1.33;;;26.10;49.20;25.00;101081.00;;;;5060019;28;20048;-70
2022/08/22 13:07:36;;;;;;;1.80;1.30;;;26.00;49.10;25.00;101077.00;;;;5073289;28;20040;-70
2022/08/22 13:10:41;;;;;;;5.57;1.83;;;26.10;49.10;25.00;101088.00;;;;5069319;28;20131;-70
2022/08/22 13:13:32;;;;;;;2.55;1.60;;;26.00;49.00;25.00;101080.00;;;;5074726;28;20045;-70
2022/08/22 13:16:18;;;;;;;3.45;1.40;;;26.00;49.00;25.00;101084.00;;;;5067208;28;20404;-71
2022/08/22 13:19:30;;;;;;;3.40;1.40;;;26.10;49.00;25.00;101088.00;;;;5065024;28;20059;-71
2022/08/22 13:22:19;;;;;;;2.58;1.63;;;26.00;48.90;25.00;101081.00;;;;5066988;28;20394;-71
2022/08/22 13:25:27;;;;;;;3.65;1.48;;;26.10;49.60;25.00;101078.00;;;;5073604;28;20044;-71
2022/08/22 13:28:13;;;;;;;3.63;1.98;;;26.10;48.90;25.00;101079.00;;;;5074308;28;20336;-71
2022/08/22 13:31:00;;;;;;;2.60;1.45;;;26.10;48.80;25.00;101073.00;;;;5073981;28;20082;-70
2022/08/22 13:33:46;;;;;;;3.42;1.70;;;26.10;48.80;25.00;101078.00;;;;5082935;28;20032;-70
2022/08/22 13:36:40;;;;;;;5.88;2.33;;;26.00;48.70;25.00;101071.00;;;;5075135;28;20040;-71